createdAt,value
2022-10-23T00:08:00.034Z,99771.84
2022-10-23T00:10:27.929Z,99777.38
2022-10-23T00:12:54.920Z,99769.56
2022-10-23T00:15:22.877Z,99761.97
2022-10-23T00:17:49.579Z,99765.66
2022-10-23T00:20:17.049Z,99759.91
2022-10-23T00:22:43.709Z,99765.66
2022-10-23T00:25:10.854Z,99768.31
2022-10-23T00:27:37.545Z,99766.72
2022-10-23T00:30:05.761Z,99766.88
2022-10-23T00:35:04.775Z,99766.28
2022-10-23T00:37:31.382Z,99774.91
2022-10-23T00:39:58.213Z,99776.13
2022-10-23T00:42:24.831Z,99769.34
2022-10-23T00:44:51.335Z,99773.25
2022-10-23T00:47:18.443Z,99776.75
2022-10-23T00:49:45.010Z,99764.44
2022-10-23T00:52:13.511Z,99775.53
2022-10-23T00:54:42.154Z,99768.34
2022-10-23T00:57:13.057Z,99770.41
2022-10-23T00:59:41.530Z,99776.56
2022-10-23T01:02:08.261Z,99779.00
2022-10-23T01:04:35.007Z,99784.13
2022-10-23T01:07:09.565Z,99789.69
2022-10-23T01:09:51.362Z,99785.59
2022-10-23T01:12:32.942Z,99780.81
2022-10-23T01:15:06.748Z,99786.34
2022-10-23T01:17:53.752Z,99785.34
2022-10-23T01:20:31.796Z,99781.56
2022-10-23T01:23:07.675Z,99778.47
2022-10-23T01:25:37.290Z,99782.94
2022-10-23T01:28:10.876Z,99792.38
2022-10-23T01:33:15.476Z,99782.25
2022-10-23T01:35:51.092Z,99792.72
2022-10-23T04:00:51.581Z,99794.22
2022-10-23T04:03:19.187Z,99790.16
2022-10-23T04:05:49.991Z,99789.69
2022-10-23T04:08:20.100Z,99791.56
2022-10-23T04:10:50.223Z,99782.50
2022-10-23T04:13:20.193Z,99792.38
2022-10-23T04:15:51.178Z,99791.56
2022-10-23T04:18:18.121Z,99790.16
2022-10-23T04:20:48.092Z,99786.88
2022-10-23T04:23:15.328Z,99789.53
2022-10-23T04:25:42.621Z,99792.84
2022-10-23T04:28:09.454Z,99782.19
2022-10-23T04:30:38.870Z,99781.53
2022-10-23T04:33:06.826Z,99785.69
2022-10-23T04:35:33.474Z,99773.63
2022-10-23T04:38:00.041Z,99773.25
2022-10-23T04:40:26.622Z,99774.06
2022-10-23T04:42:54.678Z,99773.06
2022-10-23T04:45:21.505Z,99774.50
2022-10-23T04:47:48.075Z,99772.28
2022-10-23T04:50:15.086Z,99769.25
2022-10-23T04:53:00.284Z,99777.88
2022-10-23T04:55:52.444Z,99763.94
2022-10-23T04:58:25.102Z,99768.81
2022-10-23T05:00:52.562Z,99773.06
2022-10-23T05:03:26.248Z,99775.72
2022-10-23T05:05:55.395Z,99778.19
2022-10-23T05:08:40.389Z,99770.31
2022-10-23T05:11:25.333Z,99776.88
2022-10-23T05:13:52.092Z,99771.84
2022-10-23T05:16:52.302Z,99768.75
2022-10-23T05:19:24.269Z,99772.41
2022-10-23T05:21:55.738Z,99777.31
2022-10-23T05:24:26.614Z,99771.16
2022-10-23T05:26:59.746Z,99774.06
2022-10-23T05:29:30.132Z,99769.50
2022-10-23T05:31:59.263Z,99767.66
2022-10-23T05:34:30.296Z,99759.28
2022-10-23T05:36:57.269Z,99766.84
2022-10-23T05:39:24.135Z,99775.44
2022-10-23T05:41:52.693Z,99775.91
2022-10-23T05:44:23.029Z,99772.84
2022-10-23T05:47:18.558Z,99785.34
2022-10-23T05:49:45.094Z,99782.53
2022-10-23T05:52:20.204Z,99780.16
2022-10-23T05:55:06.784Z,99775.16
2022-10-23T05:58:03.063Z,99779.47
2022-10-23T06:00:56.740Z,99785.66
2022-10-23T06:03:41.929Z,99785.53
2022-10-23T06:06:10.965Z,99792.06
2022-10-23T06:08:44.792Z,99797.09
2022-10-23T06:11:13.642Z,99791.44
2022-10-23T06:13:44.678Z,99795.63
2022-10-23T06:16:13.844Z,99805.28
2022-10-23T06:18:41.584Z,99806.44
2022-10-23T06:21:13.308Z,99800.56
2022-10-23T06:23:41.048Z,99801.03
2022-10-23T06:26:26.323Z,99801.34
2022-10-23T06:29:00.885Z,99797.13
2022-10-23T06:31:28.310Z,99793.28
2022-10-23T06:33:57.910Z,99797.84
2022-10-23T06:36:27.406Z,99804.47
2022-10-23T06:39:02.481Z,99803.50
2022-10-23T06:41:49.083Z,99806.81
2022-10-23T06:44:35.610Z,99802.38
2022-10-23T06:47:10.716Z,99805.09
2022-10-23T06:49:56.187Z,99803.66
2022-10-23T06:52:45.231Z,99803.50
2022-10-23T06:55:10.393Z,99794.03
2022-10-23T06:57:38.260Z,99788.69
2022-10-23T07:00:06.084Z,99790.31
2022-10-23T07:02:42.079Z,99789.09
2022-10-23T07:05:12.765Z,99787.03
2022-10-23T07:07:42.468Z,99784.31
2022-10-23T07:10:10.276Z,99775.84
2022-10-23T07:12:42.184Z,99770.66
2022-10-23T07:15:44.479Z,99772.06
2022-10-23T07:18:16.874Z,99778.34
2022-10-23T07:21:12.921Z,99769.91
2022-10-23T07:23:40.387Z,99790.25
2022-10-23T07:26:14.371Z,99781.34
2022-10-23T07:28:42.281Z,99780.69
2022-10-23T07:31:11.818Z,99796.69
2022-10-23T07:34:04.390Z,99794.53
2022-10-23T07:36:31.149Z,99798.78
2022-10-23T07:38:57.793Z,99796.88
2022-10-23T07:41:24.925Z,99800.94
2022-10-23T07:43:51.481Z,99796.13
2022-10-23T07:46:18.423Z,99800.78
2022-10-23T07:48:45.574Z,99798.19
2022-10-23T07:51:14.718Z,99796.88
2022-10-23T07:53:47.086Z,99797.19
2022-10-23T07:56:29.998Z,99803.69
2022-10-23T07:59:22.728Z,99794.25
2022-10-23T08:01:55.811Z,99796.44
2022-10-23T08:04:27.359Z,99796.94
2022-10-23T08:07:01.043Z,99799.78
2022-10-23T08:09:30.305Z,99803.22
2022-10-23T08:11:57.394Z,99802.91
2022-10-23T08:14:26.745Z,99790.44
2022-10-23T08:16:53.431Z,99791.38
2022-10-23T08:19:20.057Z,99791.09
2022-10-23T08:21:49.524Z,99792.91
2022-10-23T08:24:16.433Z,99791.22
2022-10-23T08:26:45.439Z,99785.13
2022-10-23T08:29:13.475Z,99792.06
2022-10-23T08:31:40.734Z,99791.59
2022-10-23T08:34:37.917Z,99793.50
2022-10-23T08:37:04.699Z,99786.13
2022-10-23T08:39:33.901Z,99783.72
2022-10-23T08:42:25.162Z,99781.06
2022-10-23T08:45:00.353Z,99777.66
2022-10-23T08:47:37.548Z,99772.78
2022-10-23T08:50:32.774Z,99772.50
2022-10-23T08:53:02.977Z,99766.53
2022-10-23T08:55:37.460Z,99779.44
2022-10-23T08:58:07.776Z,99767.13
2022-10-23T09:00:34.541Z,99763.84
2022-10-23T09:03:02.896Z,99769.34
2022-10-23T09:05:43.268Z,99767.59
2022-10-23T09:08:12.974Z,99762.78
2022-10-23T09:11:05.080Z,99762.28
2022-10-23T09:13:56.442Z,99752.59
2022-10-23T09:17:00.529Z,99753.88
2022-10-23T09:19:28.105Z,99743.44
2022-10-23T09:21:55.832Z,99750.06
2022-10-23T09:24:24.555Z,99745.63
2022-10-23T09:26:53.030Z,99746.16
2022-10-23T09:29:27.338Z,99744.19
2022-10-23T09:31:56.472Z,99745.28
2022-10-23T09:34:25.389Z,99733.53
2022-10-23T09:37:17.836Z,99730.63
2022-10-23T09:39:44.497Z,99717.00
2022-10-23T09:42:22.261Z,99736.13
2022-10-23T09:44:51.254Z,99726.81
2022-10-23T09:47:21.089Z,99724.47
2022-10-23T09:49:52.431Z,99717.84
2022-10-23T09:52:19.845Z,99719.81
2022-10-23T09:54:53.586Z,99728.72
2022-10-23T09:57:31.035Z,99730.69
2022-10-23T10:00:22.763Z,99734.06
2022-10-23T10:03:02.604Z,99738.13
2022-10-23T10:05:42.302Z,99727.97
2022-10-23T10:08:20.974Z,99727.09
2022-10-23T10:10:58.132Z,99722.34
2022-10-23T10:13:33.835Z,99721.38
2022-10-23T10:16:04.317Z,99715.59
2022-10-23T10:18:43.621Z,99718.28
2022-10-23T10:21:29.175Z,99717.34
2022-10-23T10:24:47.049Z,99714.66
2022-10-23T10:27:28.888Z,99708.03
2022-10-23T10:30:04.621Z,99702.75
2022-10-23T10:32:42.993Z,99697.19
2022-10-23T10:35:18.806Z,99692.44
2022-10-23T10:38:20.990Z,99697.75
2022-10-23T10:40:58.421Z,99688.28
2022-10-23T10:43:44.032Z,99693.78
2022-10-23T10:46:21.612Z,99693.84
2022-10-23T10:49:07.725Z,99690.84
2022-10-23T10:51:48.693Z,99691.06
2022-10-23T10:54:49.227Z,99684.50
2022-10-23T10:57:31.728Z,99673.66
2022-10-23T11:00:04.264Z,99668.50
2022-10-23T11:02:46.137Z,99667.78
2022-10-23T11:05:32.497Z,99678.91
2022-10-23T11:08:27.976Z,99676.47
2022-10-23T11:10:58.468Z,99669.44
2022-10-23T11:13:28.343Z,99661.88
2022-10-23T11:16:02.275Z,99663.38
2022-10-23T11:18:30.863Z,99661.81
2022-10-23T11:21:08.962Z,99658.88
2022-10-23T11:23:58.774Z,99659.16
2022-10-23T11:26:47.548Z,99658.81
2022-10-23T11:29:32.446Z,99657.72
2022-10-23T11:32:28.440Z,99646.59
2022-10-23T11:35:07.186Z,99657.53
2022-10-23T11:37:33.957Z,99635.09
2022-10-23T11:40:23.034Z,99655.00
2022-10-23T11:42:50.443Z,99651.25
2022-10-23T11:45:33.423Z,99638.06
2022-10-23T11:48:04.234Z,99625.34
2022-10-23T11:50:33.517Z,99614.00
2022-10-23T11:53:20.923Z,99621.94
2022-10-23T11:56:04.886Z,99623.34
2022-10-23T11:58:43.395Z,99611.91
2022-10-23T12:01:31.552Z,99610.00
2022-10-23T12:04:06.882Z,99610.50
2022-10-23T12:06:52.724Z,99599.69
2022-10-23T12:09:30.997Z,99601.31
2022-10-23T12:12:09.484Z,99609.31
2022-10-23T12:14:47.821Z,99605.50
2022-10-23T12:17:23.446Z,99603.34
2022-10-23T12:19:55.132Z,99590.91
2022-10-23T12:22:25.386Z,99600.72
2022-10-23T12:25:12.060Z,99589.34
2022-10-23T12:27:44.943Z,99581.78
2022-10-23T12:30:20.126Z,99573.66
2022-10-23T12:33:01.016Z,99569.03
2022-10-23T12:35:48.869Z,99559.34
2022-10-23T12:38:15.392Z,99564.19
2022-10-23T12:40:46.270Z,99557.75
2022-10-23T12:43:30.541Z,99562.44
2022-10-23T12:46:04.321Z,99553.50
2022-10-23T12:48:33.375Z,99553.03
2022-10-23T12:50:59.971Z,99548.44
2022-10-23T12:53:26.609Z,99548.72
2022-10-23T12:58:34.611Z,99540.94
2022-10-23T13:01:06.325Z,99540.06
2022-10-23T13:03:34.026Z,99542.00
2022-10-23T13:06:04.664Z,99536.03
2022-10-23T13:08:40.683Z,99527.63
2022-10-23T13:11:26.770Z,99525.44
2022-10-23T13:13:56.054Z,99518.13
2022-10-23T13:16:25.483Z,99508.69
2022-10-23T13:18:54.093Z,99504.94
2022-10-23T13:21:23.131Z,99502.75
2022-10-23T13:23:50.661Z,99505.47
2022-10-23T13:26:45.141Z,99508.97
2022-10-23T13:29:32.047Z,99490.78
2022-10-23T13:32:25.070Z,99495.94
2022-10-23T13:35:04.102Z,99492.41
2022-10-23T13:37:42.247Z,99495.88
2022-10-23T13:40:23.617Z,99501.53
2022-10-23T13:42:52.019Z,99487.44
2022-10-23T13:45:22.984Z,99487.38
2022-10-23T13:47:50.051Z,99479.31
2022-10-23T13:50:17.430Z,99470.19
2022-10-23T13:52:44.590Z,99481.03
2022-10-23T13:55:18.941Z,99476.72
2022-10-23T13:57:45.728Z,99474.72
2022-10-23T14:00:13.142Z,99489.22
2022-10-23T14:02:39.909Z,99486.72
2022-10-23T14:05:06.679Z,99492.81
2022-10-23T14:07:33.275Z,99498.84
2022-10-23T14:10:00.037Z,99504.38
2022-10-23T14:12:26.678Z,99499.88
2022-10-23T14:14:53.630Z,99497.59
2022-10-23T14:17:20.619Z,99501.19
2022-10-23T14:19:47.214Z,99498.16
2022-10-23T14:22:13.953Z,99481.19
2022-10-23T14:24:40.530Z,99487.81
2022-10-23T14:27:07.131Z,99489.94
2022-10-23T14:29:33.761Z,99490.75
2022-10-23T14:32:00.381Z,99488.88
2022-10-23T14:34:27.106Z,99488.03
2022-10-23T14:37:07.358Z,99480.81
2022-10-23T14:39:34.531Z,99488.78
2022-10-23T14:42:01.107Z,99496.94
2022-10-23T14:44:27.897Z,99493.44
2022-10-23T14:46:54.483Z,99482.84
2022-10-23T14:49:21.117Z,99487.94
2022-10-23T14:51:47.624Z,99484.09
2022-10-23T14:54:15.732Z,99502.25
2022-10-23T14:56:42.306Z,99487.66
2022-10-23T14:59:10.668Z,99484.81
2022-10-23T15:01:45.605Z,99481.13
2022-10-23T15:04:15.457Z,99477.91
2022-10-23T15:06:42.833Z,99480.47
2022-10-23T15:09:09.607Z,99492.84
2022-10-23T15:11:36.141Z,99491.78
2022-10-23T15:14:02.752Z,99487.47
2022-10-23T15:16:29.295Z,99484.59
2022-10-23T15:18:55.974Z,99495.78
2022-10-23T15:21:22.602Z,99478.28
2022-10-23T15:23:49.265Z,99469.78
2022-10-23T15:26:22.702Z,99455.69
2022-10-23T15:28:54.261Z,99469.94
2022-10-23T15:31:29.963Z,99477.06
2022-10-23T15:33:57.975Z,99470.31
2022-10-23T15:36:24.867Z,99472.22
2022-10-23T15:38:52.012Z,99464.38
2022-10-23T15:41:33.125Z,99469.63
2022-10-23T15:44:01.130Z,99485.16
2022-10-23T15:46:27.726Z,99483.50
2022-10-23T15:48:54.562Z,99477.53
2022-10-23T15:51:21.182Z,99463.16
2022-10-23T15:53:47.746Z,99464.06
2022-10-23T15:56:14.355Z,99473.47
2022-10-23T15:58:40.987Z,99486.06
2022-10-23T16:01:07.819Z,99484.53
2022-10-23T16:03:35.535Z,99481.38
2022-10-23T16:06:07.013Z,99471.47
2022-10-23T16:08:34.100Z,99472.22
2022-10-23T16:11:00.842Z,99482.38
2022-10-23T16:13:27.602Z,99490.63
2022-10-23T16:15:54.439Z,99495.84
2022-10-23T16:18:22.668Z,99488.00
2022-10-23T16:20:50.939Z,99486.03
2022-10-23T16:23:17.694Z,99484.59
2022-10-23T16:25:45.584Z,99494.72
2022-10-23T16:28:12.628Z,99497.47
2022-10-23T16:30:43.130Z,99502.63
2022-10-23T16:33:09.915Z,99497.88
2022-10-23T16:35:36.987Z,99493.31
2022-10-23T16:38:11.778Z,99493.97
2022-10-23T16:40:38.415Z,99490.38
2022-10-23T16:43:23.964Z,99489.97
2022-10-23T16:46:06.625Z,99496.59
2022-10-23T16:48:34.496Z,99493.78
2022-10-23T16:51:01.216Z,99495.03
2022-10-23T16:53:30.827Z,99490.56
2022-10-23T16:55:57.842Z,99483.88
2022-10-23T16:58:25.527Z,99491.91
2022-10-23T17:01:06.621Z,99492.94
2022-10-23T17:03:40.043Z,99500.69
2022-10-23T17:06:08.935Z,99501.50
2022-10-23T17:08:38.238Z,99502.41
2022-10-23T17:11:16.832Z,99515.41
2022-10-23T17:13:46.412Z,99515.19
2022-10-23T17:16:15.796Z,99512.69
2022-10-23T17:18:44.091Z,99514.16
2022-10-23T17:21:12.366Z,99513.25
2022-10-23T17:23:39.022Z,99515.50
2022-10-23T17:26:09.802Z,99517.94
2022-10-23T17:28:40.419Z,99515.50
2022-10-23T17:31:22.233Z,99511.34
2022-10-23T17:33:51.585Z,99516.25
2022-10-23T17:36:19.499Z,99515.28
2022-10-23T17:38:46.304Z,99525.72
2022-10-23T17:41:15.230Z,99529.28
2022-10-23T17:43:42.481Z,99523.97
2022-10-23T17:46:10.385Z,99529.13
2022-10-23T17:48:37.535Z,99526.66
2022-10-23T17:51:06.756Z,99526.44
2022-10-23T17:53:35.200Z,99515.94
2022-10-23T17:56:06.977Z,99516.84
2022-10-23T17:58:34.044Z,99520.25
2022-10-23T18:01:05.810Z,99517.78
2022-10-23T18:03:33.006Z,99517.78
2022-10-23T18:06:15.473Z,99519.59
2022-10-23T18:08:43.115Z,99524.28
2022-10-23T18:11:18.384Z,99522.41
2022-10-23T18:13:45.381Z,99515.34
2022-10-23T18:16:12.336Z,99516.84
2022-10-23T18:18:40.198Z,99506.50
2022-10-23T18:21:07.509Z,99515.34
2022-10-23T18:23:34.541Z,99506.03
2022-10-23T18:26:02.075Z,99515.06
2022-10-23T18:28:29.436Z,99509.47
2022-10-23T18:30:57.135Z,99506.44
2022-10-23T18:33:24.235Z,99507.47
2022-10-23T18:35:50.791Z,99505.63
2022-10-23T18:38:17.379Z,99521.84
2022-10-23T18:40:44.330Z,99508.13
2022-10-23T18:43:15.004Z,99491.25
2022-10-23T18:45:42.419Z,99492.63
2022-10-23T18:48:08.990Z,99503.34
2022-10-23T18:50:37.206Z,99512.81
2022-10-23T18:53:04.271Z,99512.38
2022-10-23T18:55:31.089Z,99518.91
2022-10-23T18:57:57.921Z,99522.22
2022-10-23T19:00:24.492Z,99503.09
2022-10-23T19:02:52.457Z,99491.91
2022-10-23T19:05:19.747Z,99485.03
2022-10-23T19:07:46.814Z,99474.16
2022-10-23T19:10:15.883Z,99484.91
2022-10-23T19:12:43.128Z,99482.22
2022-10-23T19:15:10.209Z,99479.31
2022-10-23T19:17:37.007Z,99479.31
2022-10-23T19:20:09.491Z,99469.63
2022-10-23T19:22:40.275Z,99481.78
2022-10-23T19:25:25.452Z,99494.25
2022-10-23T19:27:53.306Z,99477.13
2022-10-23T19:30:22.711Z,99485.31
2022-10-23T19:32:50.488Z,99499.34
2022-10-23T19:35:18.793Z,99486.50
2022-10-23T19:37:45.860Z,99470.63
2022-10-23T19:40:13.440Z,99482.19
2022-10-23T19:42:41.782Z,99476.81
2022-10-23T19:45:13.498Z,99472.88
2022-10-23T19:47:40.974Z,99472.63
2022-10-23T19:50:09.168Z,99472.06
2022-10-23T19:52:35.960Z,99470.78
2022-10-23T19:55:03.366Z,99471.38
2022-10-23T19:57:33.703Z,99473.72
2022-10-23T20:00:00.981Z,99464.16
2022-10-23T20:02:27.879Z,99467.66
2022-10-23T20:04:54.508Z,99478.66
2022-10-23T20:07:21.098Z,99475.03
2022-10-23T20:09:47.743Z,99481.78
2022-10-23T20:12:14.330Z,99468.63
2022-10-23T20:14:40.899Z,99462.44
2022-10-23T20:17:07.459Z,99469.78
2022-10-23T20:19:34.860Z,99475.16
2022-10-23T20:22:01.473Z,99473.88
2022-10-23T20:24:28.050Z,99464.78
2022-10-23T20:26:55.734Z,99465.97
2022-10-23T20:29:22.923Z,99470.03
2022-10-23T20:31:49.500Z,99483.44
2022-10-23T20:34:16.800Z,99472.97
2022-10-23T20:36:46.675Z,99479.16
2022-10-23T20:39:16.762Z,99480.19
2022-10-23T20:41:45.032Z,99480.56
2022-10-23T20:44:14.503Z,99466.09
2022-10-23T20:46:41.521Z,99471.38
2022-10-23T20:49:12.145Z,99461.69
2022-10-23T20:51:38.866Z,99454.91
2022-10-23T20:54:05.499Z,99454.47
2022-10-23T20:56:35.191Z,99455.03
2022-10-23T20:59:04.357Z,99446.84
2022-10-23T21:01:31.998Z,99466.38
2022-10-23T21:04:01.124Z,99456.06
2022-10-23T21:06:41.030Z,99462.88
2022-10-23T21:09:17.016Z,99462.94
2022-10-23T21:11:43.602Z,99475.09
2022-10-23T21:14:10.231Z,99479.44
2022-10-23T21:16:41.573Z,99470.69
2022-10-23T21:19:09.041Z,99456.69
2022-10-23T21:21:35.827Z,99443.25
2022-10-23T21:24:06.242Z,99445.72
2022-10-23T21:26:33.228Z,99445.94
2022-10-23T21:29:18.057Z,99464.03
2022-10-23T21:31:45.559Z,99468.56
2022-10-23T21:34:12.355Z,99455.38
2022-10-23T21:36:53.869Z,99453.53
2022-10-23T21:39:25.789Z,99451.66
2022-10-23T21:41:52.407Z,99449.56
2022-10-23T21:44:19.022Z,99461.69
2022-10-23T21:46:45.725Z,99460.66
2022-10-23T21:49:12.888Z,99464.16
2022-10-23T21:51:39.659Z,99449.72
2022-10-23T21:54:08.425Z,99450.53
2022-10-23T21:56:40.189Z,99443.41
2022-10-23T21:59:12.657Z,99431.97
2022-10-23T22:01:41.194Z,99438.84
2022-10-23T22:04:08.035Z,99441.31
2022-10-23T22:06:34.705Z,99443.88
2022-10-23T22:09:01.312Z,99443.78
2022-10-23T22:11:28.183Z,99433.41
2022-10-23T22:13:55.213Z,99429.09
2022-10-23T22:16:22.195Z,99424.16
2022-10-23T22:18:48.792Z,99429.53
2022-10-23T22:21:21.641Z,99449.53
2022-10-23T22:23:49.343Z,99444.38
2022-10-23T22:26:21.017Z,99442.34
2022-10-23T22:28:47.755Z,99439.59
2022-10-23T22:31:19.627Z,99441.25
2022-10-23T22:33:46.565Z,99453.03
2022-10-23T22:36:13.236Z,99436.44
2022-10-23T22:38:40.729Z,99443.25
2022-10-23T22:41:07.903Z,99438.66
2022-10-23T22:43:34.554Z,99442.41
2022-10-23T22:46:12.628Z,99438.66
2022-10-23T22:48:40.182Z,99432.84
2022-10-23T22:51:09.060Z,99429.34
2022-10-23T22:53:36.207Z,99429.81
2022-10-23T22:56:06.441Z,99425.75
2022-10-23T22:58:33.474Z,99430.50
2022-10-23T23:01:18.632Z,99431.81
2022-10-23T23:03:45.566Z,99430.38
2022-10-23T23:06:12.517Z,99427.47
2022-10-23T23:08:40.331Z,99436.44
2022-10-23T23:11:08.229Z,99422.22
2022-10-23T23:13:35.280Z,99432.94
2022-10-23T23:16:02.727Z,99434.59
2022-10-23T23:18:29.738Z,99429.69
2022-10-23T23:21:03.507Z,99432.50
2022-10-23T23:23:30.772Z,99427.56
2022-10-23T23:25:57.738Z,99427.34
2022-10-23T23:28:24.677Z,99426.19
2022-10-23T23:31:09.179Z,99420.56
2022-10-23T23:33:35.997Z,99414.97
2022-10-23T23:36:08.241Z,99415.56
2022-10-23T23:38:35.789Z,99417.44
2022-10-23T23:41:02.623Z,99416.41
2022-10-23T23:43:30.206Z,99414.50
2022-10-23T23:45:57.661Z,99421.97
2022-10-23T23:48:24.609Z,99417.78
2022-10-23T23:50:51.782Z,99412.63
2022-10-23T23:53:18.496Z,99407.88
2022-10-23T23:55:45.064Z,99405.88
2022-10-23T23:58:12.347Z,99407.06
